createdAt,value
2023-05-08T00:01:06.226Z,7.03
2023-05-08T00:03:33.775Z,7.72
2023-05-08T00:06:01.561Z,8.38
2023-05-08T00:08:28.415Z,6.70
2023-05-08T00:10:55.624Z,8.20
2023-05-08T00:13:22.907Z,7.30
2023-05-08T00:15:50.304Z,8.23
2023-05-08T00:18:17.590Z,8.02
2023-05-08T00:20:44.579Z,7.82
2023-05-08T00:23:11.366Z,6.40
2023-05-08T00:25:38.552Z,7.57
2023-05-08T00:28:06.117Z,7.47
2023-05-08T00:30:33.406Z,7.75
2023-05-08T00:33:00.635Z,7.88
2023-05-08T00:35:27.532Z,7.25
2023-05-08T00:37:54.760Z,7.27
2023-05-08T00:40:21.648Z,8.15
2023-05-08T00:42:48.842Z,7.82
2023-05-08T00:45:16.050Z,8.73
2023-05-08T00:47:43.560Z,8.60
2023-05-08T00:50:11.049Z,8.60
2023-05-08T00:52:38.484Z,8.18
2023-05-08T00:55:06.569Z,9.50
2023-05-08T00:57:37.876Z,8.98
2023-05-08T01:00:05.888Z,8.90
2023-05-08T01:02:33.422Z,8.53
2023-05-08T01:05:00.921Z,8.88
2023-05-08T01:07:28.178Z,8.70
2023-05-08T01:09:55.453Z,9.45
2023-05-08T01:12:22.992Z,9.23
2023-05-08T01:15:00.583Z,7.90
2023-05-08T01:17:45.930Z,7.70
2023-05-08T01:20:39.717Z,8.18
2023-05-08T01:23:27.639Z,7.57
2023-05-08T01:26:28.515Z,7.93
2023-05-08T01:29:10.318Z,6.33
2023-05-08T01:31:37.603Z,7.80
2023-05-08T01:34:19.791Z,8.13
2023-05-08T01:36:53.158Z,8.10
2023-05-08T01:39:51.202Z,8.85
2023-05-08T01:42:33.927Z,9.17
2023-05-08T01:45:05.609Z,9.48
2023-05-08T01:47:38.164Z,9.80
2023-05-08T01:50:14.660Z,8.98
2023-05-08T01:52:46.871Z,7.90
2023-05-08T01:55:20.300Z,10.30
2023-05-08T01:57:54.175Z,10.02
2023-05-08T02:00:23.409Z,10.05
2023-05-08T02:02:52.353Z,10.30
2023-05-08T02:05:22.545Z,10.35
2023-05-08T02:07:51.077Z,10.70
2023-05-08T02:10:20.063Z,10.77
2023-05-08T02:12:48.419Z,11.23
2023-05-08T02:15:17.381Z,10.30
2023-05-08T02:17:48.537Z,10.63
2023-05-08T02:20:16.399Z,10.70
2023-05-08T02:22:45.901Z,9.88
2023-05-08T02:25:14.880Z,12.57
2023-05-08T02:27:45.623Z,13.25
2023-05-08T02:30:15.175Z,11.73
2023-05-08T02:32:47.993Z,13.70
2023-05-08T02:35:19.964Z,13.43
2023-05-08T02:37:55.516Z,14.10
2023-05-08T02:40:24.792Z,14.40
2023-05-08T02:42:52.103Z,14.60
2023-05-08T02:45:19.917Z,13.40
2023-05-08T02:48:19.971Z,14.23
2023-05-08T02:51:02.873Z,13.38
2023-05-08T02:53:35.955Z,9.85
2023-05-08T02:56:16.729Z,13.07
2023-05-08T02:58:52.766Z,12.23
2023-05-08T03:01:43.136Z,13.18
2023-05-08T03:04:12.699Z,13.70
2023-05-08T03:06:44.524Z,13.63
2023-05-08T03:09:18.681Z,16.02
2023-05-08T03:11:49.650Z,13.57
2023-05-08T03:14:22.618Z,16.02
2023-05-08T03:16:52.441Z,14.30
2023-05-08T03:19:30.327Z,12.60
2023-05-08T03:22:00.663Z,14.23
2023-05-08T03:24:29.446Z,16.87
2023-05-08T03:26:59.111Z,14.38
2023-05-08T03:29:26.823Z,14.25
2023-05-08T03:31:57.069Z,13.10
2023-05-08T03:34:24.590Z,13.40
2023-05-08T03:36:52.943Z,13.70
2023-05-08T03:39:20.396Z,12.68
2023-05-08T03:41:49.630Z,12.32
2023-05-08T03:44:18.483Z,12.13
2023-05-08T03:46:47.611Z,12.55
2023-05-08T03:49:15.229Z,13.27
2023-05-08T03:51:43.203Z,13.18
2023-05-08T03:54:10.862Z,13.25
2023-05-08T03:56:37.665Z,14.35
2023-05-08T03:59:14.210Z,12.70
2023-05-08T04:02:03.074Z,12.57
2023-05-08T04:04:44.557Z,12.52
2023-05-08T04:07:39.444Z,12.30
2023-05-08T04:10:21.646Z,13.43
2023-05-08T04:13:15.978Z,14.02
2023-05-08T04:15:56.686Z,13.53
2023-05-08T04:18:29.177Z,11.75
2023-05-08T04:21:00.064Z,13.00
2023-05-08T04:23:29.816Z,13.10
2023-05-08T04:25:57.316Z,13.52
2023-05-08T04:28:24.731Z,13.50
2023-05-08T04:30:52.352Z,12.88
2023-05-08T04:33:19.925Z,13.23
2023-05-08T04:35:47.420Z,10.95
2023-05-08T04:38:15.021Z,9.80
2023-05-08T04:40:42.475Z,12.10
2023-05-08T04:43:11.104Z,11.60
2023-05-08T04:45:39.137Z,12.32
2023-05-08T04:48:06.310Z,12.65
2023-05-08T04:50:33.165Z,12.88
2023-05-08T04:53:00.492Z,12.30
2023-05-08T04:55:27.378Z,12.23
2023-05-08T04:57:54.723Z,13.05
2023-05-08T05:00:21.619Z,9.63
2023-05-08T05:02:49.328Z,11.50
2023-05-08T05:05:16.555Z,11.17
2023-05-08T05:07:43.792Z,11.82
2023-05-08T05:10:12.099Z,11.93
2023-05-08T05:12:39.420Z,12.00
2023-05-08T05:15:06.992Z,9.82
2023-05-08T05:17:36.620Z,11.90
2023-05-08T05:20:05.798Z,11.65
2023-05-08T05:22:33.312Z,11.63
2023-05-08T05:25:00.776Z,11.07
2023-05-08T05:27:28.935Z,11.25
2023-05-08T05:29:56.004Z,12.13
2023-05-08T05:32:22.875Z,10.88
2023-05-08T05:34:50.270Z,13.00
2023-05-08T05:37:17.594Z,13.20
2023-05-08T05:39:45.063Z,11.48
2023-05-08T05:42:12.538Z,11.27
2023-05-08T05:44:39.458Z,11.38
2023-05-08T05:47:10.168Z,11.77
2023-05-08T05:49:39.622Z,12.32
2023-05-08T05:52:06.873Z,11.55
2023-05-08T05:54:34.194Z,11.37
2023-05-08T05:57:01.707Z,12.13
2023-05-08T05:59:29.118Z,12.05
2023-05-08T06:01:56.560Z,11.52
2023-05-08T06:04:23.569Z,11.98
2023-05-08T06:06:50.957Z,11.50
2023-05-08T06:09:18.189Z,12.27
2023-05-08T06:11:45.057Z,12.15
2023-05-08T06:14:12.431Z,11.85
2023-05-08T06:16:40.621Z,12.40
2023-05-08T06:19:08.089Z,12.27
2023-05-08T06:21:35.290Z,12.60
2023-05-08T06:24:03.201Z,12.73
2023-05-08T06:26:30.444Z,12.25
2023-05-08T06:28:57.667Z,12.55
2023-05-08T06:31:25.290Z,12.40
2023-05-08T06:33:52.125Z,13.00
2023-05-08T06:36:19.420Z,12.45
2023-05-08T06:38:46.629Z,13.85
2023-05-08T06:41:15.296Z,13.65
2023-05-08T06:43:43.036Z,15.10
2023-05-08T06:46:10.021Z,14.70
2023-05-08T06:48:36.953Z,13.63
2023-05-08T06:51:04.514Z,14.45
2023-05-08T06:53:31.782Z,14.77
2023-05-08T06:55:58.860Z,14.10
2023-05-08T06:58:25.879Z,15.27
2023-05-08T07:00:53.263Z,15.77
2023-05-08T07:03:20.547Z,15.20
2023-05-08T07:05:47.790Z,15.43
2023-05-08T07:08:14.852Z,16.67
2023-05-08T07:10:42.119Z,17.30
2023-05-08T07:13:09.342Z,17.02
2023-05-08T07:15:36.683Z,17.98
2023-05-08T07:18:03.995Z,17.92
2023-05-08T07:20:31.361Z,17.20
2023-05-08T07:22:58.182Z,18.08
2023-05-08T07:25:25.222Z,19.13
2023-05-08T07:27:52.116Z,18.38
2023-05-08T07:30:19.415Z,18.40
2023-05-08T07:32:46.865Z,17.10
2023-05-08T07:35:15.487Z,18.42
2023-05-08T07:37:43.186Z,18.23
2023-05-08T07:40:10.554Z,19.92
2023-05-08T07:42:44.365Z,19.38
2023-05-08T07:45:13.386Z,20.13
2023-05-08T07:47:50.509Z,19.98
2023-05-08T07:50:17.929Z,22.35
2023-05-08T07:52:46.497Z,21.17
2023-05-08T07:55:15.046Z,20.48
2023-05-08T07:57:43.893Z,21.57
2023-05-08T08:00:15.572Z,20.60
2023-05-08T08:02:44.951Z,20.08
2023-05-08T08:05:12.734Z,19.98
2023-05-08T08:07:40.319Z,21.27
2023-05-08T08:10:07.955Z,19.87
2023-05-08T08:12:35.001Z,21.50
2023-05-08T08:15:01.946Z,23.30
2023-05-08T08:17:29.467Z,21.58
2023-05-08T08:19:57.205Z,23.00
2023-05-08T08:22:25.441Z,22.13
2023-05-08T08:24:55.342Z,21.58
2023-05-08T08:27:23.118Z,23.15
2023-05-08T08:29:52.593Z,22.50
2023-05-08T08:32:25.830Z,24.65
2023-05-08T08:34:52.988Z,23.90
2023-05-08T08:37:20.401Z,24.75
2023-05-08T08:39:48.503Z,24.08
2023-05-08T08:42:15.623Z,23.05
2023-05-08T08:44:42.799Z,23.75
2023-05-08T08:47:12.734Z,23.93
2023-05-08T08:49:47.377Z,23.73
2023-05-08T08:52:31.775Z,24.15
2023-05-08T08:55:02.628Z,23.63
2023-05-08T08:57:34.049Z,25.23
2023-05-08T09:00:05.420Z,25.00
2023-05-08T09:02:33.066Z,28.45
2023-05-08T09:05:00.714Z,25.98
2023-05-08T09:07:30.046Z,27.63
2023-05-08T09:09:57.462Z,27.63
2023-05-08T09:12:24.749Z,28.97
2023-05-08T09:14:51.870Z,30.00
2023-05-08T09:17:18.770Z,29.52
2023-05-08T09:19:48.060Z,29.70
2023-05-08T09:22:15.357Z,30.02
2023-05-08T09:24:59.103Z,30.67
2023-05-08T09:27:28.072Z,30.75
2023-05-08T09:30:02.329Z,30.70
2023-05-08T09:32:30.890Z,31.90
2023-05-08T09:34:58.423Z,32.72
2023-05-08T09:37:26.172Z,33.40
2023-05-08T09:39:53.811Z,33.28
2023-05-08T09:42:21.101Z,33.40
2023-05-08T09:44:52.909Z,32.78
2023-05-08T09:47:24.337Z,34.95
2023-05-08T09:50:06.152Z,33.47
2023-05-08T09:52:34.172Z,34.47
2023-05-08T09:55:04.888Z,33.13
2023-05-08T09:57:39.215Z,32.63
2023-05-08T10:00:13.187Z,34.53
2023-05-08T10:02:42.526Z,32.60
2023-05-08T10:05:31.863Z,32.83
2023-05-08T10:08:18.194Z,32.03
2023-05-08T10:10:45.942Z,33.83
2023-05-08T10:13:13.088Z,33.28
2023-05-08T10:15:43.860Z,34.17
2023-05-08T10:18:12.225Z,33.53
2023-05-08T10:20:40.940Z,35.17
2023-05-08T10:23:11.673Z,34.35
2023-05-08T10:25:46.275Z,36.47
2023-05-08T10:28:15.028Z,35.90
2023-05-08T10:30:47.457Z,35.85
2023-05-08T10:33:16.033Z,36.85
2023-05-08T10:35:43.365Z,38.55
2023-05-08T10:38:11.278Z,37.20
2023-05-08T10:40:38.506Z,36.87
2023-05-08T10:43:07.638Z,37.22
2023-05-08T10:45:35.483Z,38.55
2023-05-08T10:48:02.699Z,36.85
2023-05-08T10:51:06.138Z,37.55
2023-05-08T10:53:40.936Z,38.20
2023-05-08T10:56:07.972Z,39.47
2023-05-08T10:58:39.137Z,38.20
2023-05-08T11:01:09.184Z,37.45
2023-05-08T11:03:44.269Z,36.92
2023-05-08T11:06:12.082Z,36.77
2023-05-08T11:08:53.106Z,37.58
2023-05-08T11:11:38.134Z,37.70
2023-05-08T11:14:05.398Z,40.22
2023-05-08T11:16:59.884Z,38.72
2023-05-08T11:19:27.919Z,37.75
2023-05-08T11:22:12.661Z,37.38
2023-05-08T11:24:50.273Z,37.28
2023-05-08T11:27:17.502Z,36.33
2023-05-08T11:29:45.151Z,36.42
2023-05-08T11:32:12.283Z,34.93
2023-05-08T11:34:46.100Z,35.03
2023-05-08T11:37:24.188Z,35.50
2023-05-08T11:39:51.413Z,31.77
2023-05-08T11:42:27.755Z,29.90
2023-05-08T11:45:13.685Z,31.53
2023-05-08T11:47:42.845Z,32.58
2023-05-08T11:50:12.100Z,30.85
2023-05-08T11:52:41.680Z,24.75
2023-05-08T11:55:11.013Z,30.60
2023-05-08T11:57:38.433Z,29.07
2023-05-08T12:00:10.818Z,28.92
2023-05-08T12:02:42.567Z,29.30
2023-05-08T12:05:11.223Z,26.00
2023-05-08T12:07:48.143Z,25.77
2023-05-08T12:10:16.669Z,27.47
2023-05-08T12:12:45.251Z,28.58
2023-05-08T12:15:15.084Z,26.08
2023-05-08T12:17:42.918Z,23.50
2023-05-08T12:20:18.293Z,23.92
2023-05-08T12:22:52.813Z,27.27
2023-05-08T12:25:20.714Z,26.73
2023-05-08T12:27:48.689Z,27.92
2023-05-08T12:30:16.871Z,25.48
2023-05-08T12:32:44.519Z,26.30
2023-05-08T12:35:13.050Z,25.73
2023-05-08T12:37:40.868Z,24.67
2023-05-08T12:40:22.638Z,24.88
2023-05-08T12:42:50.832Z,25.40
2023-05-08T12:45:18.493Z,27.15
2023-05-08T12:47:50.319Z,24.93
2023-05-08T12:50:18.818Z,23.75
2023-05-08T12:52:45.975Z,25.25
2023-05-08T12:55:31.754Z,23.27
2023-05-08T12:58:15.069Z,23.08
2023-05-08T13:00:51.898Z,22.97
2023-05-08T13:03:27.077Z,24.30
2023-05-08T13:05:56.236Z,24.35
2023-05-08T13:08:34.347Z,21.85
2023-05-08T13:11:03.276Z,21.35
2023-05-08T13:13:32.802Z,22.27
2023-05-08T13:16:06.838Z,22.15
2023-05-08T13:18:36.667Z,22.58
2023-05-08T13:21:03.804Z,21.45
2023-05-08T13:23:31.482Z,22.40
2023-05-08T13:25:58.409Z,22.33
2023-05-08T13:28:25.373Z,21.52
2023-05-08T13:30:52.229Z,21.92
2023-05-08T13:33:19.179Z,21.38
2023-05-08T13:35:46.434Z,22.05
2023-05-08T13:38:13.309Z,18.87
2023-05-08T13:40:40.750Z,21.73
2023-05-08T13:43:08.006Z,22.00
2023-05-08T13:45:35.181Z,21.27
2023-05-08T13:48:02.238Z,20.80
2023-05-08T13:50:29.633Z,19.97
2023-05-08T13:52:56.502Z,21.00
2023-05-08T13:55:23.846Z,21.08
2023-05-08T13:57:51.565Z,20.30
2023-05-08T14:00:18.849Z,21.48
2023-05-08T14:02:46.044Z,20.43
2023-05-08T14:05:13.495Z,20.10
2023-05-08T14:07:40.925Z,19.63
2023-05-08T14:10:08.804Z,19.67
2023-05-08T14:12:36.279Z,19.95
2023-05-08T14:15:07.116Z,20.90
2023-05-08T14:17:34.073Z,20.45
2023-05-08T14:20:01.116Z,21.25
2023-05-08T14:22:28.614Z,21.38
2023-05-08T14:24:55.970Z,23.42
2023-05-08T14:27:22.808Z,23.17
2023-05-08T14:29:50.084Z,20.95
2023-05-08T14:32:17.429Z,21.98
2023-05-08T14:34:44.945Z,21.48
2023-05-08T14:37:13.118Z,22.27
2023-05-08T14:39:40.076Z,22.20
2023-05-08T14:44:37.316Z,20.98
2023-05-08T14:47:04.951Z,21.55
2023-05-08T14:49:38.200Z,21.13
2023-05-08T14:52:06.933Z,20.57
2023-05-08T14:54:34.321Z,21.35
2023-05-08T14:57:01.592Z,20.45
2023-05-08T14:59:28.643Z,21.70
2023-05-08T15:01:55.570Z,22.00
2023-05-08T15:04:22.679Z,21.53
2023-05-08T15:06:49.621Z,20.67
2023-05-08T15:09:17.162Z,22.38
2023-05-08T15:11:44.419Z,20.52
2023-05-08T15:14:11.386Z,21.63
2023-05-08T15:16:38.388Z,22.37
2023-05-08T15:19:05.413Z,22.38
2023-05-08T15:21:32.241Z,21.30
2023-05-08T15:23:59.395Z,22.38
2023-05-08T15:26:26.638Z,21.77
2023-05-08T15:28:54.018Z,21.10
2023-05-08T15:31:21.976Z,22.80
2023-05-08T15:33:49.038Z,23.65
2023-05-08T15:36:16.598Z,23.10
2023-05-08T15:38:43.902Z,23.05
2023-05-08T15:41:15.007Z,23.20
2023-05-08T15:43:45.094Z,22.73
2023-05-08T15:46:12.188Z,24.73
2023-05-08T15:48:39.520Z,24.30
2023-05-08T15:51:06.763Z,24.48
2023-05-08T15:53:34.310Z,25.70
2023-05-08T15:56:01.333Z,24.65
2023-05-08T15:58:28.601Z,25.75
2023-05-08T16:00:56.882Z,25.80
2023-05-08T16:03:24.240Z,24.27
2023-05-08T16:05:51.707Z,26.93
2023-05-08T16:08:19.097Z,26.17
2023-05-08T16:10:46.585Z,27.45
2023-05-08T16:13:13.830Z,28.38
2023-05-08T16:15:41.206Z,28.35
2023-05-08T16:18:08.695Z,31.47
2023-05-08T16:20:36.513Z,31.30
2023-05-08T16:23:03.584Z,34.40
2023-05-08T16:25:30.483Z,34.63
2023-05-08T16:27:57.355Z,36.30
2023-05-08T16:30:24.223Z,36.40
2023-05-08T16:32:51.610Z,37.45
2023-05-08T16:35:19.575Z,39.75
2023-05-08T16:37:46.855Z,39.75
2023-05-08T16:40:13.902Z,36.45
2023-05-08T16:42:40.857Z,38.67
2023-05-08T16:45:08.857Z,37.20
2023-05-08T16:47:36.481Z,36.78
2023-05-08T16:50:04.683Z,35.63
2023-05-08T16:52:33.118Z,35.88
2023-05-08T16:55:00.535Z,35.17
2023-05-08T16:57:28.045Z,34.35
2023-05-08T16:59:55.312Z,33.35
2023-05-08T17:02:23.029Z,32.15
2023-05-08T17:04:50.501Z,30.75
2023-05-08T17:07:18.128Z,29.27
2023-05-08T17:09:45.786Z,27.67
2023-05-08T17:12:13.299Z,29.15
2023-05-08T17:14:42.746Z,28.27
2023-05-08T17:17:10.019Z,28.13
2023-05-08T17:19:37.339Z,27.20
2023-05-08T17:22:04.201Z,28.35
2023-05-08T17:24:32.381Z,28.52
2023-05-08T17:26:59.970Z,28.77
2023-05-08T17:29:27.318Z,26.55
2023-05-08T17:31:54.255Z,25.47
2023-05-08T17:34:22.757Z,25.50
2023-05-08T17:36:50.291Z,25.13
2023-05-08T17:39:20.058Z,23.15
2023-05-08T17:41:49.302Z,22.30
2023-05-08T17:44:16.900Z,20.43
2023-05-08T17:46:44.938Z,20.05
2023-05-08T17:49:13.032Z,21.63
2023-05-08T17:51:41.496Z,19.52
2023-05-08T17:54:08.916Z,18.73
2023-05-08T17:56:35.760Z,19.27
2023-05-08T17:59:02.617Z,19.70
2023-05-08T18:01:30.028Z,19.25
2023-05-08T18:03:57.575Z,22.23
2023-05-08T18:06:25.003Z,19.55
2023-05-08T18:08:52.450Z,20.17
2023-05-08T18:11:21.402Z,18.73
2023-05-08T18:13:49.038Z,18.67
2023-05-08T18:16:17.967Z,18.60
2023-05-08T18:18:45.124Z,17.17
2023-05-08T18:21:12.361Z,17.53
2023-05-08T18:23:39.777Z,17.02
2023-05-08T18:26:07.321Z,16.90
2023-05-08T18:28:36.244Z,18.35
2023-05-08T18:31:03.769Z,17.05
2023-05-08T18:33:31.119Z,17.53
2023-05-08T18:35:58.381Z,18.25
2023-05-08T18:38:25.685Z,17.80
2023-05-08T18:40:53.049Z,18.23
2023-05-08T18:43:20.499Z,18.00
2023-05-08T18:45:47.726Z,16.77
2023-05-08T18:48:15.256Z,15.15
2023-05-08T18:50:42.489Z,15.65
2023-05-08T18:53:10.478Z,16.65
2023-05-08T18:55:37.728Z,15.57
2023-05-08T18:58:06.306Z,16.03
2023-05-08T19:00:33.694Z,16.70
2023-05-08T19:03:01.193Z,15.55
2023-05-08T19:05:28.923Z,15.70
2023-05-08T19:07:56.122Z,16.30
2023-05-08T19:10:23.021Z,15.83
2023-05-08T19:12:50.729Z,19.67
2023-05-08T19:15:18.190Z,17.58
2023-05-08T19:17:45.743Z,16.35
2023-05-08T19:20:13.566Z,16.23
2023-05-08T19:22:41.069Z,16.40
2023-05-08T19:25:08.319Z,16.25
2023-05-08T19:27:35.655Z,17.15
2023-05-08T19:30:03.423Z,16.10
2023-05-08T19:32:30.741Z,16.95
2023-05-08T19:34:57.707Z,17.03
2023-05-08T19:37:25.045Z,16.48
2023-05-08T19:39:52.284Z,16.88
2023-05-08T19:42:19.772Z,15.77
2023-05-08T19:44:47.038Z,15.68
2023-05-08T19:47:14.083Z,15.53
2023-05-08T19:49:41.499Z,17.92
2023-05-08T19:52:08.915Z,18.88
2023-05-08T19:54:36.480Z,17.92
2023-05-08T19:57:03.722Z,17.48
2023-05-08T19:59:30.963Z,17.53
2023-05-08T20:01:58.332Z,16.70
2023-05-08T20:04:25.757Z,17.40
2023-05-08T20:06:52.943Z,18.05
2023-05-08T20:09:20.290Z,16.63
2023-05-08T20:11:47.131Z,20.03
2023-05-08T20:14:14.452Z,18.55
2023-05-08T20:16:42.044Z,18.88
2023-05-08T20:19:09.544Z,19.70
2023-05-08T20:21:36.812Z,18.13
2023-05-08T20:24:03.923Z,20.87
2023-05-08T20:26:31.334Z,19.30
2023-05-08T20:28:59.001Z,20.65
2023-05-08T20:31:27.882Z,18.80
2023-05-08T20:33:55.234Z,21.10
2023-05-08T20:36:22.714Z,19.70
2023-05-08T20:38:49.987Z,20.30
2023-05-08T20:41:17.643Z,20.27
2023-05-08T20:43:45.296Z,18.60
2023-05-08T20:46:12.221Z,20.45
2023-05-08T20:48:39.212Z,20.73
2023-05-08T20:51:06.180Z,18.13
2023-05-08T20:53:33.431Z,22.15
2023-05-08T20:56:04.812Z,21.23
2023-05-08T20:58:31.936Z,22.85
2023-05-08T21:00:59.373Z,21.43
2023-05-08T21:03:26.988Z,19.42
2023-05-08T21:05:55.234Z,21.25
2023-05-08T21:08:23.795Z,20.67
2023-05-08T21:10:51.867Z,20.88
2023-05-08T21:13:19.475Z,19.73
2023-05-08T21:15:49.869Z,21.25
2023-05-08T21:18:17.028Z,20.17
2023-05-08T21:20:49.997Z,20.02
2023-05-08T21:23:18.019Z,20.70
2023-05-08T21:25:51.143Z,20.70
2023-05-08T21:28:18.018Z,21.10
2023-05-08T21:30:45.632Z,22.15
2023-05-08T21:33:16.246Z,21.38
2023-05-08T21:35:43.815Z,19.48
2023-05-08T21:38:14.268Z,22.23
2023-05-08T21:40:41.513Z,22.15
2023-05-08T21:43:08.477Z,22.02
2023-05-08T21:45:35.536Z,18.98
2023-05-08T21:48:03.280Z,14.90
2023-05-08T21:50:30.370Z,16.07
2023-05-08T21:52:57.836Z,15.80
2023-05-08T21:55:25.246Z,25.73
2023-05-08T21:57:53.796Z,18.63
2023-05-08T22:00:21.069Z,19.55
2023-05-08T22:02:48.611Z,19.63
2023-05-08T22:05:16.176Z,18.02
2023-05-08T22:07:43.244Z,20.45
2023-05-08T22:10:11.554Z,19.10
2023-05-08T22:12:39.049Z,21.90
2023-05-08T22:15:14.899Z,19.17
2023-05-08T22:17:45.650Z,21.48
2023-05-08T22:20:14.848Z,20.88
2023-05-08T22:22:42.366Z,17.42
2023-05-08T22:25:09.695Z,18.95
2023-05-08T22:27:36.490Z,21.27
2023-05-08T22:30:03.772Z,22.02
2023-05-08T22:32:31.561Z,20.30
2023-05-08T22:34:58.812Z,17.85
2023-05-08T22:37:26.228Z,17.75
2023-05-08T22:39:53.434Z,20.57
2023-05-08T22:42:20.755Z,17.38
2023-05-08T22:44:48.269Z,18.55
2023-05-08T22:47:15.500Z,18.95
2023-05-08T22:49:42.803Z,18.77
2023-05-08T22:52:10.067Z,21.40
2023-05-08T22:54:37.444Z,17.75
2023-05-08T22:57:04.882Z,20.40
2023-05-08T22:59:32.114Z,20.95
2023-05-08T23:01:59.344Z,21.75
2023-05-08T23:04:26.397Z,21.07
2023-05-08T23:06:53.180Z,20.33
2023-05-08T23:09:20.174Z,22.65
2023-05-08T23:11:47.452Z,18.63
2023-05-08T23:14:14.782Z,20.88
2023-05-08T23:16:41.697Z,22.83
2023-05-08T23:19:09.975Z,21.98
2023-05-08T23:21:37.172Z,20.20
2023-05-08T23:26:48.633Z,17.25
2023-05-08T23:29:15.626Z,21.50
2023-05-08T23:31:42.847Z,19.90
2023-05-08T23:34:09.771Z,19.23
2023-05-08T23:36:36.575Z,20.27
2023-05-08T23:39:04.113Z,21.05
2023-05-08T23:41:30.900Z,22.77
2023-05-08T23:43:59.110Z,22.50
2023-05-08T23:46:26.005Z,21.17
2023-05-08T23:48:53.331Z,23.33
2023-05-08T23:51:29.561Z,21.40
2023-05-08T23:53:57.020Z,20.67
2023-05-08T23:56:24.919Z,22.77
2023-05-08T23:58:52.093Z,24.02
